Time;durP1;ratioP1;P1;durP2;ratioP2;P2;SDS_P1;SDS_P2;PMS_P1;PMS_P2;Temp;Humidity;BMP_temperature;BMP_pressure;BME280_temperature;BME280_humidity;BME280_pressure;Samples;Min_cycle;Max_cycle;Signal;HPM_P1;HPM_P2
2022/01/30 00:00:15;;;;;;;14.13;3.33;;;;;;;;;;5110145;28;20088;-61
2022/01/30 00:02:41;;;;;;;12.02;2.97;;;;;;;;;;5109557;28;20051;-61
2022/01/30 00:05:07;;;;;;;12.02;3.13;;;;;;;;;;5109610;28;20506;-60
2022/01/30 00:07:34;;;;;;;12.70;3.25;;;;;;;;;;5106607;28;20134;-61
2022/01/30 00:10:00;;;;;;;11.75;3.60;;;;;;;;;;5108762;28;20051;-62
2022/01/30 00:12:41;;;;;;;12.88;2.88;;;;;;;;;;5107359;28;20490;-61
2022/01/30 00:15:07;;;;;;;12.55;3.00;;;;;;;;;;5109770;28;20047;-61
2022/01/30 00:17:40;;;;;;;10.63;2.67;;;;;;;;;;5107533;28;20043;-61
2022/01/30 00:20:11;;;;;;;10.60;2.78;;;;;;;;;;5109984;28;20039;-61
2022/01/30 00:22:53;;;;;;;11.68;3.28;;;;;;;;;;5108903;28;20551;-61
2022/01/30 00:25:31;;;;;;;12.27;2.97;;;;;;;;;;5109535;28;20056;-62
2022/01/30 00:28:05;;;;;;;11.95;3.20;;;;;;;;;;5109735;28;20118;-61
2022/01/30 00:30:35;;;;;;;11.13;2.95;;;;;;;;;;5109162;28;20036;-61
2022/01/30 00:33:02;;;;;;;12.50;3.13;;;;;;;;;;5108142;28;20124;-60
2022/01/30 00:35:28;;;;;;;13.10;3.42;;;;;;;;;;5109517;28;20039;-60
2022/01/30 00:37:54;;;;;;;9.85;3.03;;;;;;;;;;5108946;28;20116;-61
2022/01/30 00:40:21;;;;;;;12.50;3.60;;;;;;;;;;5109766;28;20067;-60
2022/01/30 00:42:47;;;;;;;11.55;2.75;;;;;;;;;;5108289;28;20076;-61
2022/01/30 00:45:13;;;;;;;12.40;3.20;;;;;;;;;;5108521;28;20051;-61
2022/01/30 00:47:39;;;;;;;12.55;2.85;;;;;;;;;;5107909;28;20041;-61
2022/01/30 00:50:05;;;;;;;12.85;2.80;;;;;;;;;;5108199;28;20063;-61
2022/01/30 00:52:31;;;;;;;12.02;2.63;;;;;;;;;;5090415;28;20047;-60
2022/01/30 00:54:57;;;;;;;14.95;3.30;;;;;;;;;;5091526;28;20513;-61
2022/01/30 00:57:23;;;;;;;9.60;2.80;;;;;;;;;;5108264;28;20445;-61
2022/01/30 00:59:49;;;;;;;13.73;3.00;;;;;;;;;;5108471;28;20039;-61
2022/01/30 01:02:16;;;;;;;10.80;2.92;;;;;;;;;;5109548;28;20043;-61
2022/01/30 01:04:42;;;;;;;14.77;3.42;;;;;;;;;;5108298;28;20051;-61
2022/01/30 01:07:14;;;;;;;14.07;3.25;;;;;;;;;;5109443;28;20047;-61
2022/01/30 01:09:42;;;;;;;13.70;3.28;;;;;;;;;;5109494;28;20042;-61
2022/01/30 01:25:18;;;;;;;10.40;3.08;;;;;;;;;;5109153;28;20092;-61
2022/01/30 01:27:44;;;;;;;11.50;3.00;;;;;;;;;;5109520;28;20027;-61
2022/01/30 01:30:11;;;;;;;11.63;3.03;;;;;;;;;;5109435;28;20074;-61
2022/01/30 01:32:37;;;;;;;13.35;3.05;;;;;;;;;;5108733;28;20448;-60
2022/01/30 01:35:03;;;;;;;13.43;2.88;;;;;;;;;;5109427;28;20188;-61
2022/01/30 01:37:29;;;;;;;11.18;2.92;;;;;;;;;;5108859;28;20059;-61
2022/01/30 01:39:55;;;;;;;11.50;2.50;;;;;;;;;;5109158;28;20428;-61
2022/01/30 01:42:22;;;;;;;11.60;2.63;;;;;;;;;;5091297;28;20043;-61
2022/01/30 01:44:52;;;;;;;13.02;3.13;;;;;;;;;;5110742;28;20162;-61
2022/01/30 01:47:21;;;;;;;13.48;3.30;;;;;;;;;;5111959;28;20119;-60
2022/01/30 01:49:50;;;;;;;10.88;3.00;;;;;;;;;;5112878;28;20050;-60
2022/01/30 01:54:42;;;;;;;14.23;3.58;;;;;;;;;;5094680;28;20402;-61
2022/01/30 01:57:08;;;;;;;12.82;3.50;;;;;;;;;;5094800;28;20482;-61
2022/01/30 01:59:34;;;;;;;10.57;3.00;;;;;;;;;;5111538;28;20031;-61
2022/01/30 02:02:02;;;;;;;14.02;3.67;;;;;;;;;;5111678;28;20043;-60
2022/01/30 02:04:28;;;;;;;11.57;2.97;;;;;;;;;;5110762;28;20475;-61
2022/01/30 02:07:33;;;;;;;11.05;3.22;;;;;;;;;;5111100;28;20083;-61
2022/01/30 02:09:49;;;;;;;9.95;2.92;;;;;;;;;;5112474;28;20073;-61
2022/01/30 02:12:25;;;;;;;11.88;2.70;;;;;;;;;;5112890;28;20128;-61
2022/01/30 02:15:14;;;;;;;14.75;3.45;;;;;;;;;;5111131;28;20074;-61
2022/01/30 02:25:58;;;;;;;12.48;3.20;;;;;;;;;;5111176;28;21049;-60
2022/01/30 02:28:25;;;;;;;11.63;2.80;;;;;;;;;;5112294;27;20035;-60
2022/01/30 02:30:59;;;;;;;12.85;3.00;;;;;;;;;;5112656;27;20072;-61
2022/01/30 02:33:25;;;;;;;9.43;3.10;;;;;;;;;;5111432;28;20044;-61
2022/01/30 02:35:51;;;;;;;11.38;3.22;;;;;;;;;;5112103;28;20066;-60
2022/01/30 02:38:19;;;;;;;12.13;3.17;;;;;;;;;;5111884;28;20351;-61
2022/01/30 02:40:47;;;;;;;12.05;3.00;;;;;;;;;;5112044;28;20075;-60
2022/01/30 02:43:16;;;;;;;12.95;2.88;;;;;;;;;;5110892;28;20063;-61
2022/01/30 02:45:48;;;;;;;10.57;2.95;;;;;;;;;;5112313;28;20057;-61
2022/01/30 02:48:19;;;;;;;12.48;3.13;;;;;;;;;;5110031;28;20058;-61
2022/01/30 02:51:06;;;;;;;12.88;3.00;;;;;;;;;;5111038;28;20043;-61
2022/01/30 02:53:38;;;;;;;14.10;3.53;;;;;;;;;;5070081;28;20510;-61
2022/01/30 02:56:04;;;;;;;11.82;3.05;;;;;;;;;;5089385;28;20158;-61
2022/01/30 02:58:30;;;;;;;12.70;3.60;;;;;;;;;;5099945;28;20050;-61
2022/01/30 03:00:56;;;;;;;11.73;2.92;;;;;;;;;;5093379;28;20048;-61
2022/01/30 03:03:22;;;;;;;11.98;2.90;;;;;;;;;;5111950;28;20135;-61
2022/01/30 03:05:49;;;;;;;12.60;2.92;;;;;;;;;;5111515;28;20052;-61
2022/01/30 03:08:15;;;;;;;12.93;3.28;;;;;;;;;;5110702;28;20430;-61
2022/01/30 03:10:41;;;;;;;12.20;3.33;;;;;;;;;;5111128;28;20031;-60
2022/01/30 03:13:06;;;;;;;12.77;3.00;;;;;;;;;;5111867;28;20239;-61
2022/01/30 03:15:33;;;;;;;13.25;3.13;;;;;;;;;;5110879;28;20235;-61
2022/01/30 03:17:59;;;;;;;12.73;3.05;;;;;;;;;;5111346;28;20032;-60
2022/01/30 03:20:25;;;;;;;14.60;3.75;;;;;;;;;;5092758;28;20035;-62
2022/01/30 03:22:51;;;;;;;15.90;3.45;;;;;;;;;;5109473;28;20092;-61
2022/01/30 03:25:17;;;;;;;13.00;3.28;;;;;;;;;;5111167;28;20408;-61
2022/01/30 03:27:51;;;;;;;12.95;3.55;;;;;;;;;;5111035;28;20046;-61
2022/01/30 03:30:24;;;;;;;12.63;3.65;;;;;;;;;;5109190;28;20043;-61
2022/01/30 03:32:50;;;;;;;11.82;3.03;;;;;;;;;;5110042;28;20055;-60
2022/01/30 03:35:16;;;;;;;13.35;3.30;;;;;;;;;;5110876;28;20054;-61
2022/01/30 03:37:42;;;;;;;15.65;3.80;;;;;;;;;;5110798;28;20119;-61
2022/01/30 03:40:09;;;;;;;11.43;3.03;;;;;;;;;;5109243;28;20039;-61
2022/01/30 03:42:35;;;;;;;12.40;3.28;;;;;;;;;;5110501;28;20604;-61
2022/01/30 03:45:01;;;;;;;13.30;3.00;;;;;;;;;;5110803;28;20051;-61
2022/01/30 03:47:27;;;;;;;14.27;4.13;;;;;;;;;;5109354;28;20075;-62
2022/01/30 03:49:53;;;;;;;12.68;3.33;;;;;;;;;;5109743;28;20142;-61
2022/01/30 03:52:19;;;;;;;13.27;3.33;;;;;;;;;;5108991;28;20050;-60
2022/01/30 03:54:45;;;;;;;13.20;3.47;;;;;;;;;;5109145;28;20135;-61
2022/01/30 03:57:11;;;;;;;16.52;3.88;;;;;;;;;;5110664;28;20509;-61
2022/01/30 03:59:38;;;;;;;14.23;3.67;;;;;;;;;;5111260;28;20378;-62
2022/01/30 04:02:04;;;;;;;14.73;4.00;;;;;;;;;;5110029;28;20044;-61
2022/01/30 04:04:32;;;;;;;12.32;3.38;;;;;;;;;;5110697;28;20639;-61
2022/01/30 04:06:58;;;;;;;15.95;3.92;;;;;;;;;;5091995;28;20114;-61
2022/01/30 04:09:25;;;;;;;12.73;3.70;;;;;;;;;;5110794;28;20036;-60
2022/01/30 04:11:51;;;;;;;14.68;3.70;;;;;;;;;;5110464;28;20454;-60
2022/01/30 04:14:17;;;;;;;13.70;3.58;;;;;;;;;;5109056;28;20035;-60
2022/01/30 04:16:43;;;;;;;14.05;3.90;;;;;;;;;;5110147;28;20475;-61
2022/01/30 04:19:10;;;;;;;13.25;3.58;;;;;;;;;;5109248;28;20134;-61
2022/01/30 04:21:36;;;;;;;14.18;4.20;;;;;;;;;;5091716;28;20089;-60
2022/01/30 04:24:02;;;;;;;12.65;3.35;;;;;;;;;;5110284;28;20040;-61
2022/01/30 04:26:28;;;;;;;17.55;4.25;;;;;;;;;;5110444;28;20039;-61
2022/01/30 04:28:54;;;;;;;12.40;3.28;;;;;;;;;;5110676;28;20039;-61
2022/01/30 04:31:20;;;;;;;14.73;3.75;;;;;;;;;;5108932;28;20126;-61
2022/01/30 04:33:46;;;;;;;14.93;3.45;;;;;;;;;;5108683;28;20043;-61
2022/01/30 04:36:17;;;;;;;14.95;4.05;;;;;;;;;;5109915;28;20048;-61
2022/01/30 05:02:57;;;;;;;15.55;3.50;;;;;;;;;;5109973;28;20079;-60
2022/01/30 05:08:02;;;;;;;15.73;4.28;;;;;;;;;;5109330;28;20062;-61
2022/01/30 05:10:28;;;;;;;14.88;3.90;;;;;;;;;;5091124;28;20497;-61
2022/01/30 05:12:57;;;;;;;13.88;4.00;;;;;;;;;;5109620;28;20036;-62
2022/01/30 05:15:26;;;;;;;16.10;4.15;;;;;;;;;;5109394;28;20112;-61
2022/01/30 05:17:52;;;;;;;17.85;4.22;;;;;;;;;;5109490;28;20044;-61
2022/01/30 05:20:18;;;;;;;15.30;3.97;;;;;;;;;;5112153;28;20111;-61
2022/01/30 05:22:44;;;;;;;16.45;4.15;;;;;;;;;;5113052;28;20135;-61
2022/01/30 05:25:10;;;;;;;13.57;3.50;;;;;;;;;;5112069;28;20044;-61
2022/01/30 05:27:37;;;;;;;16.08;4.20;;;;;;;;;;5113414;28;20086;-61
2022/01/30 05:30:03;;;;;;;14.48;4.00;;;;;;;;;;5113633;28;20855;-61
2022/01/30 05:32:30;;;;;;;13.93;4.90;;;;;;;;;;5113132;28;20404;-61
2022/01/30 05:34:56;;;;;;;16.20;4.30;;;;;;;;;;5113459;28;20479;-61
2022/01/30 05:37:22;;;;;;;16.45;4.03;;;;;;;;;;5112336;28;20093;-61
2022/01/30 05:39:48;;;;;;;18.05;4.88;;;;;;;;;;5113418;28;20069;-61
2022/01/30 05:42:14;;;;;;;14.85;4.43;;;;;;;;;;5113162;28;20043;-61
2022/01/30 05:45:17;;;;;;;16.70;5.18;;;;;;;;;;5095295;28;20035;-62
2022/01/30 05:47:40;;;;;;;17.75;4.43;;;;;;;;;;5109647;28;20275;-61
2022/01/30 05:50:07;;;;;;;16.70;4.43;;;;;;;;;;5113444;28;20051;-61
2022/01/30 05:52:32;;;;;;;17.95;5.45;;;;;;;;;;5111263;28;20055;-61
2022/01/30 05:54:58;;;;;;;17.33;5.05;;;;;;;;;;5113213;28;20050;-61
2022/01/30 05:57:25;;;;;;;18.73;4.85;;;;;;;;;;5112866;28;20036;-61
2022/01/30 05:59:51;;;;;;;16.33;4.50;;;;;;;;;;5113047;28;20039;-61
2022/01/30 06:02:17;;;;;;;16.77;4.40;;;;;;;;;;5094172;28;20047;-61
2022/01/30 06:04:43;;;;;;;13.18;4.07;;;;;;;;;;5113134;28;20052;-61
2022/01/30 06:07:11;;;;;;;19.20;4.70;;;;;;;;;;5110978;28;20061;-61
2022/01/30 06:09:37;;;;;;;17.42;3.97;;;;;;;;;;5112536;28;20374;-61
2022/01/30 06:12:03;;;;;;;15.60;4.43;;;;;;;;;;5112948;28;20707;-61
2022/01/30 06:14:29;;;;;;;18.38;4.82;;;;;;;;;;5112656;28;20459;-61
2022/01/30 06:16:55;;;;;;;17.10;4.63;;;;;;;;;;5112718;28;20467;-61
2022/01/30 06:19:22;;;;;;;17.50;4.03;;;;;;;;;;5111064;28;20100;-61
2022/01/30 06:21:48;;;;;;;15.82;4.40;;;;;;;;;;5112216;28;20123;-61
2022/01/30 06:24:15;;;;;;;18.75;4.75;;;;;;;;;;5111201;28;20083;-60
2022/01/30 06:26:41;;;;;;;15.45;4.93;;;;;;;;;;5111878;28;20463;-61
2022/01/30 06:29:07;;;;;;;16.65;4.43;;;;;;;;;;5111853;28;20031;-60
2022/01/30 06:31:33;;;;;;;17.52;4.07;;;;;;;;;;5110299;28;20047;-61
2022/01/30 06:33:59;;;;;;;18.50;5.13;;;;;;;;;;5112734;28;20036;-61
2022/01/30 06:36:25;;;;;;;15.40;4.28;;;;;;;;;;5111909;28;20039;-61
2022/01/30 06:38:52;;;;;;;19.58;4.82;;;;;;;;;;5112307;28;20484;-61
2022/01/30 06:41:18;;;;;;;14.18;4.32;;;;;;;;;;5110590;28;20052;-61
2022/01/30 06:43:44;;;;;;;18.25;4.65;;;;;;;;;;5111923;28;20496;-60
2022/01/30 06:46:11;;;;;;;17.27;4.78;;;;;;;;;;5112298;28;20711;-61
2022/01/30 06:48:38;;;;;;;15.25;4.13;;;;;;;;;;5110750;28;20059;-61
2022/01/30 06:51:05;;;;;;;16.13;4.18;;;;;;;;;;5110466;28;20160;-61
2022/01/30 06:53:31;;;;;;;17.40;5.05;;;;;;;;;;5110487;28;20058;-61
2022/01/30 06:55:57;;;;;;;16.73;4.90;;;;;;;;;;5110685;28;20536;-61
2022/01/30 06:58:23;;;;;;;20.00;4.93;;;;;;;;;;5111004;28;20077;-61
2022/01/30 07:00:49;;;;;;;18.85;5.10;;;;;;;;;;5109981;28;20272;-61
2022/01/30 07:03:15;;;;;;;18.08;5.00;;;;;;;;;;5092364;28;20361;-61
2022/01/30 07:05:41;;;;;;;15.68;4.10;;;;;;;;;;5111684;28;20135;-60
2022/01/30 07:08:07;;;;;;;16.25;4.57;;;;;;;;;;5110973;28;20046;-61
2022/01/30 07:10:33;;;;;;;17.30;4.15;;;;;;;;;;5111063;28;20187;-61
2022/01/30 07:12:59;;;;;;;14.18;4.20;;;;;;;;;;5109580;28;20058;-61
2022/01/30 07:15:25;;;;;;;16.83;4.82;;;;;;;;;;5111119;28;20088;-61
2022/01/30 07:17:51;;;;;;;17.08;5.47;;;;;;;;;;5110206;28;20047;-61
2022/01/30 07:20:17;;;;;;;20.13;4.40;;;;;;;;;;5110929;28;20044;-61
2022/01/30 07:22:43;;;;;;;15.95;4.25;;;;;;;;;;5110366;28;20044;-61
2022/01/30 07:25:09;;;;;;;16.10;4.80;;;;;;;;;;5111312;28;20038;-61
2022/01/30 07:27:36;;;;;;;16.10;4.78;;;;;;;;;;5110721;28;20070;-61
2022/01/30 07:30:03;;;;;;;18.23;4.38;;;;;;;;;;5093149;28;20035;-61
2022/01/30 07:32:29;;;;;;;19.52;5.13;;;;;;;;;;5108933;28;20047;-61
2022/01/30 07:34:55;;;;;;;17.38;4.50;;;;;;;;;;5109641;28;20036;-61
2022/01/30 07:37:21;;;;;;;14.57;4.80;;;;;;;;;;5110620;28;20050;-61
2022/01/30 07:39:47;;;;;;;15.32;4.25;;;;;;;;;;5109448;28;20092;-61
2022/01/30 07:42:13;;;;;;;18.20;4.45;;;;;;;;;;5091491;28;20406;-61
2022/01/30 07:44:39;;;;;;;17.10;4.10;;;;;;;;;;5108429;28;20046;-61
2022/01/30 07:47:06;;;;;;;19.40;4.82;;;;;;;;;;5110810;28;20039;-61
2022/01/30 07:49:32;;;;;;;15.38;4.57;;;;;;;;;;5109780;28;20127;-61
2022/01/30 07:51:58;;;;;;;18.60;4.68;;;;;;;;;;5108979;28;20483;-61
2022/01/30 07:54:24;;;;;;;15.60;4.40;;;;;;;;;;5109732;28;20042;-61
2022/01/30 07:56:50;;;;;;;14.88;4.30;;;;;;;;;;5109816;28;20560;-61
2022/01/30 07:59:16;;;;;;;15.20;4.70;;;;;;;;;;5109148;28;20510;-61
2022/01/30 08:01:42;;;;;;;17.42;4.57;;;;;;;;;;5092416;28;20062;-61
2022/01/30 08:04:08;;;;;;;16.15;5.15;;;;;;;;;;5110529;28;20070;-61
2022/01/30 08:06:35;;;;;;;18.08;4.55;;;;;;;;;;5110117;28;20036;-61
2022/01/30 08:09:01;;;;;;;18.73;5.10;;;;;;;;;;5110285;28;20069;-61
2022/01/30 08:11:27;;;;;;;17.27;5.32;;;;;;;;;;5110055;28;20751;-62
2022/01/30 08:13:53;;;;;;;16.27;4.22;;;;;;;;;;5110714;28;20122;-61
2022/01/30 08:16:20;;;;;;;16.30;5.32;;;;;;;;;;5110171;28;20123;-61
2022/01/30 08:18:46;;;;;;;18.60;5.03;;;;;;;;;;5109742;28;20095;-61
2022/01/30 08:21:12;;;;;;;15.95;4.30;;;;;;;;;;5110217;28;20381;-61
2022/01/30 08:23:38;;;;;;;15.32;4.63;;;;;;;;;;5108168;28;20063;-61
2022/01/30 08:26:04;;;;;;;16.08;4.55;;;;;;;;;;5110524;28;20115;-61
2022/01/30 08:28:30;;;;;;;18.15;4.60;;;;;;;;;;5109499;28;20084;-61
2022/01/30 08:30:56;;;;;;;16.10;4.18;;;;;;;;;;5110023;28;20452;-60
2022/01/30 08:33:22;;;;;;;16.65;4.47;;;;;;;;;;5110414;28;20093;-61
2022/01/30 08:35:49;;;;;;;17.13;4.63;;;;;;;;;;5108604;28;20383;-61
2022/01/30 08:38:18;;;;;;;18.60;4.93;;;;;;;;;;5109210;28;20398;-61
2022/01/30 08:40:44;;;;;;;14.23;4.55;;;;;;;;;;5110256;28;20165;-61
2022/01/30 08:43:10;;;;;;;15.65;4.57;;;;;;;;;;5110403;28;20046;-61
2022/01/30 08:45:36;;;;;;;17.02;4.75;;;;;;;;;;5107626;28;20039;-61
2022/01/30 08:48:02;;;;;;;15.13;4.78;;;;;;;;;;5108429;28;20038;-61
2022/01/30 08:50:28;;;;;;;18.42;5.32;;;;;;;;;;5108837;28;20046;-61
2022/01/30 08:52:54;;;;;;;14.00;4.22;;;;;;;;;;5107465;28;20059;-61
2022/01/30 08:55:20;;;;;;;18.77;4.72;;;;;;;;;;5094438;28;20051;-61
2022/01/30 08:57:46;;;;;;;16.85;4.20;;;;;;;;;;5114028;28;20050;-61
2022/01/30 09:00:13;;;;;;;16.45;4.32;;;;;;;;;;5114340;28;20066;-61
2022/01/30 09:02:39;;;;;;;16.60;4.75;;;;;;;;;;5113781;28;20052;-61
2022/01/30 09:05:06;;;;;;;17.13;5.10;;;;;;;;;;5113997;28;20054;-61
2022/01/30 09:07:32;;;;;;;15.32;4.30;;;;;;;;;;5113001;28;20099;-61
2022/01/30 09:09:58;;;;;;;14.80;4.15;;;;;;;;;;5113791;28;20039;-61
2022/01/30 09:12:24;;;;;;;15.68;4.50;;;;;;;;;;5113975;28;20042;-61
2022/01/30 09:14:50;;;;;;;16.17;4.47;;;;;;;;;;5112233;28;20047;-61
2022/01/30 09:17:17;;;;;;;15.68;4.30;;;;;;;;;;5113621;28;20074;-61
2022/01/30 09:19:44;;;;;;;12.25;4.18;;;;;;;;;;5111006;28;20047;-61
2022/01/30 09:22:11;;;;;;;16.00;4.70;;;;;;;;;;5111568;28;20051;-62
2022/01/30 09:24:37;;;;;;;15.32;4.05;;;;;;;;;;5113770;28;20039;-61
2022/01/30 09:27:04;;;;;;;18.17;4.47;;;;;;;;;;5095093;28;20055;-61
2022/01/30 09:29:30;;;;;;;14.77;4.20;;;;;;;;;;5113437;28;20031;-61
2022/01/30 09:31:57;;;;;;;14.38;5.10;;;;;;;;;;5111584;28;20051;-62
2022/01/30 09:34:23;;;;;;;16.70;5.15;;;;;;;;;;5113456;28;20036;-61
2022/01/30 09:36:49;;;;;;;20.10;4.80;;;;;;;;;;5112785;28;20056;-61
2022/01/30 09:39:15;;;;;;;18.00;4.97;;;;;;;;;;5113721;28;20036;-61
2022/01/30 09:41:42;;;;;;;16.95;4.75;;;;;;;;;;5113163;28;20404;-61
2022/01/30 09:44:08;;;;;;;18.00;4.43;;;;;;;;;;5095071;28;20084;-61
2022/01/30 09:46:34;;;;;;;17.73;4.45;;;;;;;;;;5111656;28;20540;-61
2022/01/30 09:49:00;;;;;;;16.00;4.55;;;;;;;;;;5111935;28;20444;-61
2022/01/30 09:51:26;;;;;;;16.08;4.60;;;;;;;;;;5111094;28;20092;-61
2022/01/30 09:53:52;;;;;;;16.30;5.00;;;;;;;;;;5113382;28;20414;-61
2022/01/30 09:56:19;;;;;;;14.38;4.50;;;;;;;;;;5113081;28;20142;-61
2022/01/30 09:58:46;;;;;;;15.50;4.53;;;;;;;;;;5113155;28;20367;-61
2022/01/30 10:01:12;;;;;;;15.63;4.30;;;;;;;;;;5113100;28;20035;-61
2022/01/30 10:03:38;;;;;;;13.68;4.30;;;;;;;;;;5112763;28;20519;-61
2022/01/30 10:06:04;;;;;;;13.05;4.25;;;;;;;;;;5111579;28;20048;-61
2022/01/30 10:08:30;;;;;;;16.70;4.75;;;;;;;;;;5112341;28;20044;-61
2022/01/30 10:11:15;;;;;;;16.30;4.53;;;;;;;;;;5111135;28;20055;-61
2022/01/30 10:13:41;;;;;;;13.90;4.05;;;;;;;;;;5113020;28;20407;-61
2022/01/30 10:16:07;;;;;;;14.77;4.30;;;;;;;;;;5110724;28;20407;-61
2022/01/30 10:18:33;;;;;;;12.05;4.32;;;;;;;;;;5110988;28;20051;-61
2022/01/30 10:21:00;;;;;;;14.55;4.18;;;;;;;;;;5110909;28;20047;-61
2022/01/30 10:23:32;;;;;;;15.50;4.60;;;;;;;;;;5112273;28;20334;-61
2022/01/30 10:26:01;;;;;;;14.90;4.15;;;;;;;;;;5091886;28;20392;-61
2022/01/30 10:28:31;;;;;;;16.52;4.40;;;;;;;;;;5090411;28;20511;-61
2022/01/30 10:30:58;;;;;;;16.35;4.50;;;;;;;;;;5087431;28;20452;-61
2022/01/30 10:33:37;;;;;;;16.33;4.90;;;;;;;;;;5091927;28;20052;-61
2022/01/30 10:36:04;;;;;;;16.45;5.20;;;;;;;;;;5108505;28;20056;-62
2022/01/30 10:38:36;;;;;;;15.75;4.10;;;;;;;;;;5110632;28;20526;-61
2022/01/30 10:41:38;;;;;;;15.80;4.70;;;;;;;;;;5110843;28;20078;-61
2022/01/30 10:44:02;;;;;;;16.02;4.68;;;;;;;;;;5109986;28;20039;-61
2022/01/30 10:46:29;;;;;;;15.52;4.55;;;;;;;;;;5111805;28;20047;-61
2022/01/30 10:49:02;;;;;;;17.63;5.10;;;;;;;;;;5110813;28;20039;-61
2022/01/30 10:51:29;;;;;;;16.98;4.28;;;;;;;;;;5110068;28;20051;-62
2022/01/30 10:53:56;;;;;;;15.68;3.75;;;;;;;;;;5112011;28;20403;-62
2022/01/30 10:56:25;;;;;;;18.38;4.60;;;;;;;;;;5109930;28;20495;-61
2022/01/30 10:59:09;;;;;;;14.93;4.57;;;;;;;;;;5110288;28;20071;-61
2022/01/30 11:01:37;;;;;;;15.27;4.07;;;;;;;;;;5110486;28;20399;-61
2022/01/30 11:04:03;;;;;;;14.82;4.53;;;;;;;;;;5111628;28;20131;-62
2022/01/30 11:06:29;;;;;;;14.30;4.55;;;;;;;;;;5108977;28;20055;-61
2022/01/30 11:08:58;;;;;;;14.63;4.70;;;;;;;;;;5111894;28;20043;-61
2022/01/30 11:19:12;;;;;;;15.25;5.03;;;;;;;;;;5099693;28;20027;-61
2022/01/30 11:21:38;;;;;;;16.65;4.75;;;;;;;;;;5091138;28;20054;-61
2022/01/30 11:24:04;;;;;;;15.38;4.82;;;;;;;;;;5109045;28;20410;-61
2022/01/30 11:26:30;;;;;;;14.88;4.38;;;;;;;;;;5109096;28;20130;-61
2022/01/30 11:28:57;;;;;;;16.30;4.93;;;;;;;;;;5109994;28;20413;-61
2022/01/30 11:31:23;;;;;;;14.95;4.88;;;;;;;;;;5092120;28;20054;-61
2022/01/30 11:33:50;;;;;;;16.88;4.95;;;;;;;;;;5109122;28;20042;-61
2022/01/30 11:36:17;;;;;;;15.95;4.40;;;;;;;;;;5109078;28;20043;-61
2022/01/30 11:38:43;;;;;;;14.90;4.43;;;;;;;;;;5110135;28;20122;-61
2022/01/30 11:41:13;;;;;;;13.77;4.40;;;;;;;;;;5110458;28;20043;-61
2022/01/30 11:43:39;;;;;;;17.35;5.18;;;;;;;;;;5109632;28;20039;-61
2022/01/30 11:46:12;;;;;;;15.45;4.43;;;;;;;;;;5110679;28;20044;-61
2022/01/30 11:48:38;;;;;;;18.55;4.78;;;;;;;;;;5092364;28;20379;-61
2022/01/30 11:51:04;;;;;;;16.52;4.50;;;;;;;;;;5108660;28;20415;-61
2022/01/30 11:53:30;;;;;;;15.43;4.82;;;;;;;;;;5110254;28;20071;-61
2022/01/30 11:56:00;;;;;;;14.82;4.70;;;;;;;;;;5110754;28;20089;-62
2022/01/30 11:58:33;;;;;;;14.95;4.78;;;;;;;;;;5110224;28;20094;-61
2022/01/30 12:01:03;;;;;;;17.48;4.75;;;;;;;;;;5109436;28;20111;-61
2022/01/30 12:03:30;;;;;;;13.82;4.03;;;;;;;;;;5106890;28;20071;-61
2022/01/30 12:05:58;;;;;;;12.88;4.45;;;;;;;;;;5088651;28;20101;-61
2022/01/30 12:08:46;;;;;;;13.85;4.32;;;;;;;;;;5123156;27;20039;-62
2022/01/30 12:11:30;;;;;;;15.45;4.57;;;;;;;;;;5109065;28;20039;-61
2022/01/30 12:13:56;;;;;;;13.80;4.22;;;;;;;;;;5092087;28;20050;-61
2022/01/30 12:16:41;;;;;;;15.75;4.63;;;;;;;;;;5109771;28;20039;-61
2022/01/30 12:19:07;;;;;;;17.02;4.35;;;;;;;;;;5109751;28;20491;-61
2022/01/30 12:21:33;;;;;;;17.73;4.50;;;;;;;;;;5109564;28;20036;-61
2022/01/30 12:23:59;;;;;;;14.73;4.55;;;;;;;;;;5110424;28;20050;-61
2022/01/30 12:26:25;;;;;;;17.17;4.28;;;;;;;;;;5109729;28;20054;-61
2022/01/30 12:28:54;;;;;;;12.77;3.85;;;;;;;;;;5108586;28;20487;-61
2022/01/30 12:31:34;;;;;;;20.02;4.72;;;;;;;;;;5107119;28;20051;-61
2022/01/30 12:34:15;;;;;;;16.75;4.80;;;;;;;;;;5109121;28;20081;-61
2022/01/30 12:36:42;;;;;;;16.25;4.95;;;;;;;;;;5108310;28;20066;-61
2022/01/30 12:39:10;;;;;;;15.57;4.28;;;;;;;;;;5092126;28;20039;-61
2022/01/30 12:41:37;;;;;;;14.02;4.45;;;;;;;;;;5110048;28;20039;-61
2022/01/30 12:44:04;;;;;;;16.70;4.13;;;;;;;;;;5110231;28;20047;-61
2022/01/30 12:46:31;;;;;;;16.67;4.75;;;;;;;;;;5108348;28;20277;-60
2022/01/30 12:49:01;;;;;;;17.42;4.97;;;;;;;;;;5108591;28;20038;-61
2022/01/30 12:51:28;;;;;;;16.55;4.40;;;;;;;;;;5109399;28;20121;-61
2022/01/30 12:53:55;;;;;;;14.63;4.32;;;;;;;;;;5110028;28;20050;-62
2022/01/30 12:56:22;;;;;;;17.42;4.78;;;;;;;;;;5108684;28;20100;-61
2022/01/30 12:58:48;;;;;;;15.70;4.13;;;;;;;;;;5109853;28;20445;-61
2022/01/30 13:01:15;;;;;;;18.35;4.78;;;;;;;;;;5108133;28;20375;-61
2022/01/30 13:03:41;;;;;;;15.25;4.78;;;;;;;;;;5109834;28;20039;-62
2022/01/30 13:06:07;;;;;;;15.23;4.85;;;;;;;;;;5109200;28;20055;-61
2022/01/30 13:08:46;;;;;;;15.98;4.20;;;;;;;;;;5109755;28;20119;-61
2022/01/30 13:11:19;;;;;;;15.82;4.70;;;;;;;;;;5108766;28;20147;-61
2022/01/30 13:13:55;;;;;;;15.40;4.68;;;;;;;;;;5108232;28;20051;-61
2022/01/30 13:16:22;;;;;;;14.98;4.28;;;;;;;;;;5109819;28;20122;-61
2022/01/30 13:18:48;;;;;;;16.33;4.75;;;;;;;;;;5108355;28;20441;-61
2022/01/30 13:21:14;;;;;;;13.77;4.10;;;;;;;;;;5089988;28;20047;-61
2022/01/30 13:23:45;;;;;;;14.10;4.35;;;;;;;;;;5108285;28;20036;-61
2022/01/30 13:26:11;;;;;;;15.77;4.50;;;;;;;;;;5108302;28;20064;-61
2022/01/30 13:28:37;;;;;;;14.50;4.10;;;;;;;;;;5090860;28;20100;-61
2022/01/30 13:31:13;;;;;;;16.08;4.80;;;;;;;;;;5109461;28;20043;-61
2022/01/30 13:33:39;;;;;;;14.93;4.20;;;;;;;;;;5107770;28;20130;-61
2022/01/30 13:36:05;;;;;;;14.35;3.85;;;;;;;;;;5107619;28;20027;-61
2022/01/30 13:38:33;;;;;;;16.30;4.93;;;;;;;;;;5107665;28;20425;-61
2022/01/30 13:41:04;;;;;;;13.63;3.95;;;;;;;;;;5110222;28;20488;-61
2022/01/30 13:43:35;;;;;;;13.82;4.22;;;;;;;;;;5112828;28;20069;-61
2022/01/30 13:48:46;;;;;;;15.18;4.18;;;;;;;;;;5109954;28;20039;-61
2022/01/30 13:51:15;;;;;;;13.07;3.47;;;;;;;;;;5109778;28;20055;-61
2022/01/30 13:53:41;;;;;;;16.02;4.10;;;;;;;;;;5111580;28;20108;-61
2022/01/30 13:56:08;;;;;;;13.80;3.97;;;;;;;;;;5110774;28;20094;-61
2022/01/30 13:58:37;;;;;;;13.52;4.05;;;;;;;;;;5112488;27;20122;-62
2022/01/30 14:01:07;;;;;;;15.15;4.13;;;;;;;;;;5110892;28;20051;-61
2022/01/30 14:03:34;;;;;;;16.42;3.97;;;;;;;;;;5112124;28;20100;-61
2022/01/30 14:06:00;;;;;;;14.52;4.22;;;;;;;;;;5111562;28;20055;-62
2022/01/30 14:08:26;;;;;;;13.73;3.60;;;;;;;;;;5111691;28;20512;-61
2022/01/30 14:11:03;;;;;;;13.20;3.70;;;;;;;;;;5112455;28;20441;-61
2022/01/30 14:13:32;;;;;;;13.00;4.00;;;;;;;;;;5112276;28;20032;-61
2022/01/30 14:16:01;;;;;;;15.32;4.68;;;;;;;;;;5111122;28;20051;-61
2022/01/30 14:18:29;;;;;;;16.25;4.00;;;;;;;;;;5111186;28;20515;-61
2022/01/30 14:20:58;;;;;;;12.48;4.25;;;;;;;;;;5090256;28;20434;-61
2022/01/30 14:23:24;;;;;;;13.88;3.80;;;;;;;;;;5090605;28;20048;-61
2022/01/30 14:25:51;;;;;;;14.02;4.05;;;;;;;;;;5092331;28;20085;-61
2022/01/30 14:28:20;;;;;;;12.48;3.90;;;;;;;;;;5101857;28;20046;-61
2022/01/30 14:30:46;;;;;;;14.05;3.88;;;;;;;;;;5110784;28;20052;-61
2022/01/30 14:33:12;;;;;;;15.30;4.43;;;;;;;;;;5112585;28;20047;-61
2022/01/30 14:35:38;;;;;;;13.40;4.07;;;;;;;;;;5094236;28;20146;-61
2022/01/30 14:38:05;;;;;;;12.10;3.45;;;;;;;;;;5111731;28;20127;-61
2022/01/30 14:40:31;;;;;;;12.95;3.95;;;;;;;;;;5110628;28;20127;-61
2022/01/30 14:42:58;;;;;;;15.35;4.25;;;;;;;;;;5112292;28;20055;-61
2022/01/30 14:45:24;;;;;;;13.30;3.45;;;;;;;;;;5110960;28;20078;-60
2022/01/30 14:47:50;;;;;;;13.73;3.80;;;;;;;;;;5110247;28;20048;-61
2022/01/30 14:50:17;;;;;;;11.68;3.60;;;;;;;;;;5112039;28;20119;-61
2022/01/30 14:52:44;;;;;;;13.15;3.83;;;;;;;;;;5110577;28;20084;-61
2022/01/30 14:55:10;;;;;;;13.35;3.70;;;;;;;;;;5112221;28;20432;-61
2022/01/30 14:57:36;;;;;;;14.05;3.97;;;;;;;;;;5111857;28;20573;-61
2022/01/30 15:00:03;;;;;;;13.57;3.88;;;;;;;;;;5111642;28;20058;-60
2022/01/30 15:02:29;;;;;;;13.77;3.70;;;;;;;;;;5110921;28;20435;-61
2022/01/30 15:04:55;;;;;;;13.57;3.70;;;;;;;;;;5110945;28;20139;-60
2022/01/30 15:07:21;;;;;;;15.77;4.38;;;;;;;;;;5111309;28;20035;-60
2022/01/30 15:09:47;;;;;;;17.02;4.78;;;;;;;;;;5111442;28;20498;-61
2022/01/30 15:12:13;;;;;;;19.73;4.38;;;;;;;;;;5109804;28;20055;-61
2022/01/30 15:14:41;;;;;;;14.88;3.58;;;;;;;;;;5111891;28;20069;-62
2022/01/30 15:17:08;;;;;;;13.98;3.60;;;;;;;;;;5111924;28;20093;-60
2022/01/30 15:19:34;;;;;;;15.85;4.20;;;;;;;;;;5110743;28;20073;-64
2022/01/30 15:22:02;;;;;;;16.45;4.38;;;;;;;;;;5109939;28;20035;-61
2022/01/30 15:24:28;;;;;;;14.63;4.13;;;;;;;;;;5109386;28;20127;-61
2022/01/30 15:26:54;;;;;;;15.35;4.22;;;;;;;;;;5110838;28;20039;-61
2022/01/30 15:29:20;;;;;;;17.55;4.35;;;;;;;;;;5090777;28;20459;-61
2022/01/30 15:31:46;;;;;;;15.07;4.30;;;;;;;;;;5104219;28;20392;-64
2022/01/30 15:34:13;;;;;;;13.55;3.45;;;;;;;;;;5108994;28;20505;-61